Resurrection — WDE5499 — position and weather

sailwx.info

Track history (hours):
 
Tides and Currents Weather Stations Pressure Air Temp Water Temp Dewpoint Dewpoint Depression Visibility Wind Speed Wind Dir Waves Ship Positions

Resurrection

Owner: Marquette Transportation Company Gulf-Inland, LLC, Jefferson, LA. More information available from US FCC via Universal Licensing System and Coast Guard Vessel Documentation Center.

Last reported at 2018-Jun-21 05:34 UTC. Time now 2018-Jun-21 17:39 UTC.
Position N 29°46' W 095°06'.

Length 224 m; draft 2.8 m.

Type: . MMSI: 367367620.

Date/timePositionNaut miles runAvg speedWind from/ knotsBaromVisibWave heightAir tempDewpointWater temp
2018-Jun-21 05:34N 29°46' W 095°06'0 6.2
2018-Jun-21 05:29N 29°46' W 095°05'4 1.3
2018-Jun-21 02:40N 29°44' W 095°02'2 5.4
2018-Jun-21 02:22N 29°42' W 095°01'2 5.7
2018-Jun-21 01:59N 29°41' W 094°59'3 6.6
2018-Jun-21 01:30N 29°38' W 094°58'3 6.9
2018-Jun-21 01:00N 29°35' W 094°56'6 6.5
2018-Jun-21 00:03N 29°30' W 094°52'0 6.4
2018-Jun-21 00:00N 29°30' W 094°52'3 6.4
2018-Jun-20 23:29N 29°27' W 094°50'3 6.5
2018-Jun-20 23:01N 29°24' W 094°49'2 4.3
2018-Jun-20 22:29N 29°23' W 094°47'18 5.2
2018-Jun-20 19:01N 29°32' W 094°29'2 5.5
2018-Jun-20 18:35N 29°34' W 094°27'1 5.5
2018-Jun-20 18:29N 29°34' W 094°26'2 3.9
2018-Jun-20 18:00N 29°35' W 094°25'2 5.0
2018-Jun-20 17:30N 29°36' W 094°22'3 6.0
2018-Jun-20 17:00N 29°38' W 094°19'3 5.5
2018-Jun-20 16:30N 29°39' W 094°16'3 6.2
2018-Jun-20 16:00N 29°40' W 094°13'3 6.2
2018-Jun-20 15:31N 29°41' W 094°10'3 5.9
2018-Jun-20 15:00N 29°43' W 094°07'3 6.1
2018-Jun-20 14:30N 29°45' W 094°04'3 6.1
2018-Jun-20 14:01N 29°47' W 094°02'3 5.8
2018-Jun-20 13:30N 29°49' W 093°59'2 4.8
2018-Jun-20 13:00N 29°50' W 093°57'4 7.3
2018-Jun-20 12:30N 29°53' W 093°55'4 7.2
2018-Jun-20 12:00N 29°56' W 093°52'3 5.2
2018-Jun-20 11:31N 29°59' W 093°52'4 7.0
2018-Jun-20 11:00N 29°60' W 093°56'3 5.1
2018-Jun-20 10:31N 30°01' W 093°59'3 6.0
2018-Jun-20 10:01N 30°02' W 094°02'2 4.7
2018-Jun-20 09:31N 30°04' W 094°03'0 0.1
2018-Jun-20 08:59N 30°04' W 094°03'1 1.4
2018-Jun-20 08:30N 30°04' W 094°04'0 0.1
2018-Jun-20 08:01N 30°04' W 094°04'0 0.0
2018-Jun-20 07:31N 30°04' W 094°04'0 0.0
2018-Jun-20 07:01N 30°04' W 094°04'0 0.0
2018-Jun-20 06:30N 30°04' W 094°04'0 0.0
2018-Jun-20 06:01N 30°04' W 094°04'0 0.0
2018-Jun-20 05:30N 30°04' W 094°04'0 0.0
2018-Jun-20 05:01N 30°04' W 094°04'0 0.0
2018-Jun-20 04:30N 30°04' W 094°04'0 0.0
2018-Jun-20 04:00N 30°04' W 094°04'0 0.0
2018-Jun-20 03:30N 30°04' W 094°04'0 0.0
2018-Jun-20 03:00N 30°04' W 094°04'0 0.0
2018-Jun-20 02:30N 30°04' W 094°04'0 0.0
2018-Jun-20 02:00N 30°04' W 094°04'0 0.0
2018-Jun-20 01:31N 30°04' W 094°04'0 0.0
2018-Jun-20 01:00N 30°04' W 094°04'0 0.0
2018-Jun-20 00:30N 30°04' W 094°04'0 0.0
2018-Jun-20 00:01N 30°04' W 094°04'0 0.0
2018-Jun-19 23:30N 30°04' W 094°04'0 0.0
2018-Jun-19 23:00N 30°04' W 094°04'0 0.0
2018-Jun-19 22:31N 30°04' W 094°04'0 0.0
2018-Jun-19 22:01N 30°04' W 094°04'0 0.0
2018-Jun-19 21:31N 30°04' W 094°04'0 0.0
2018-Jun-19 21:01N 30°04' W 094°04'0 0.0
2018-Jun-19 20:30N 30°04' W 094°04'0 0.0
2018-Jun-19 20:00N 30°04' W 094°04'0 0.0
2018-Jun-19 19:30N 30°04' W 094°04'0 0.0
2018-Jun-19 19:00N 30°04' W 094°04'0 0.0
2018-Jun-19 18:30N 30°04' W 094°04'0 0.0
2018-Jun-19 18:01N 30°04' W 094°04'0 0.0
2018-Jun-19 17:31N 30°04' W 094°04'0 0.0
2018-Jun-19 17:00N 30°04' W 094°04'1 1.4
2018-Jun-19 16:31N 30°04' W 094°03'0 0.1
2018-Jun-19 16:00N 30°04' W 094°03'1 1.3
2018-Jun-19 15:31N 30°04' W 094°04'0 0.0
2018-Jun-19 15:01N 30°04' W 094°04'0 0.0
2018-Jun-19 14:30N 30°04' W 094°04'0 0.0
2018-Jun-19 14:00N 30°04' W 094°04'0 0.0
2018-Jun-19 13:31N 30°04' W 094°04'0 0.0
2018-Jun-19 13:00N 30°04' W 094°04'0 0.0
2018-Jun-19 12:30N 30°04' W 094°04'0 0.0
2018-Jun-19 11:59N 30°04' W 094°04'0 0.0
2018-Jun-19 11:27N 30°04' W 094°04'0 0.0
2018-Jun-19 11:00N 30°04' W 094°04'0 0.0
2018-Jun-19 10:31N 30°04' W 094°04'0 0.0
2018-Jun-19 10:01N 30°04' W 094°04'0 0.0
2018-Jun-19 09:30N 30°04' W 094°04'0 0.0
2018-Jun-19 09:00N 30°04' W 094°04'0 0.0
2018-Jun-19 08:30N 30°04' W 094°04'0 0.0
2018-Jun-19 08:00N 30°04' W 094°04'0 0.0
2018-Jun-19 07:30N 30°04' W 094°04'0 0.0
2018-Jun-19 07:01N 30°04' W 094°04'0 0.0
2018-Jun-19 06:31N 30°04' W 094°04'1 1.3
2018-Jun-19 06:01N 30°04' W 094°03'1 2.0
2018-Jun-19 05:30N 30°04' W 094°02'3 5.4
2018-Jun-19 05:00N 30°01' W 094°01'3 5.9
2018-Jun-19 04:30N 30°01' W 093°57'3 6.4
2018-Jun-19 04:00N 29°59' W 093°54'3 5.7
2018-Jun-19 03:30N 29°57' W 093°52'0 0.3
2018-Jun-19 03:00N 29°57' W 093°52'0 0.3
2018-Jun-19 02:31N 29°58' W 093°52'0 0.6
2018-Jun-19 02:01N 29°57' W 093°52'0 0.7
2018-Jun-19 01:30N 29°58' W 093°52'0 0.7
2018-Jun-19 01:00N 29°58' W 093°52'3 6.4
2018-Jun-19 00:30N 29°59' W 093°55'3 6.8
2018-Jun-19 00:00N 30°01' W 093°58'3 6.6
2018-Jun-18 23:31N 30°02' W 094°02'3 6.1
2018-Jun-18 23:01N 30°04' W 094°03'0 0.5
2018-Jun-18 22:31N 30°04' W 094°04'0 0.0
2018-Jun-18 22:01N 30°04' W 094°04'3 5.1
2018-Jun-18 21:31N 30°02' W 094°02'3 6.9
2018-Jun-18 21:00N 30°01' W 093°58'4 7.4
2018-Jun-18 20:31N 29°59' W 093°54'3 6.3
2018-Jun-18 20:00N 29°57' W 093°52'1 1.1
2018-Jun-18 19:31N 29°58' W 093°52'0 0.2
2018-Jun-18 19:01N 29°58' W 093°52'0 0.2
2018-Jun-18 18:29N 29°58' W 093°52'0 0.0
2018-Jun-18 18:01N 29°58' W 093°52'1 2.1
2018-Jun-18 17:30N 29°58' W 093°51'0 0.3
2018-Jun-18 17:00N 29°58' W 093°51'0 0.0
2018-Jun-18 16:30N 29°58' W 093°51'0 0.0
2018-Jun-18 16:00N 29°58' W 093°51'0 0.0
2018-Jun-18 15:30N 29°58' W 093°51'0 0.0
2018-Jun-18 15:00N 29°58' W 093°51'0 0.0
2018-Jun-18 14:30N 29°58' W 093°51'0 0.0
2018-Jun-18 14:01N 29°58' W 093°51'0 0.0
2018-Jun-18 13:31N 29°58' W 093°51'0 0.0
2018-Jun-18 13:01N 29°58' W 093°51'0 0.0
2018-Jun-18 12:31N 29°58' W 093°51'0 0.0
2018-Jun-18 12:01N 29°58' W 093°51'0 0.0
2018-Jun-18 11:30N 29°58' W 093°51'0 0.0
2018-Jun-18 11:01N 29°58' W 093°51'0 0.0
2018-Jun-18 10:30N 29°58' W 093°51'0 0.0
2018-Jun-18 10:01N 29°58' W 093°51'0 0.0
2018-Jun-18 09:30N 29°58' W 093°51'0 0.0
2018-Jun-18 09:01N 29°58' W 093°51'0 0.0
2018-Jun-18 08:30N 29°58' W 093°51'0 0.0
2018-Jun-18 08:00N 29°58' W 093°51'0 0.0
2018-Jun-18 07:31N 29°58' W 093°51'0 0.0
2018-Jun-18 07:00N 29°58' W 093°51'0 0.0
2018-Jun-18 06:30N 29°58' W 093°51'0 0.0
2018-Jun-18 06:01N 29°58' W 093°51'0 0.0
2018-Jun-18 05:30N 29°58' W 093°51'0 0.0
2018-Jun-18 05:01N 29°58' W 093°51'0 0.0
2018-Jun-18 04:30N 29°58' W 093°51'0 0.0
2018-Jun-18 04:00N 29°58' W 093°51'0 0.0
2018-Jun-18 03:31N 29°58' W 093°51'0 0.0
2018-Jun-18 03:00N 29°58' W 093°51'0 0.0
2018-Jun-18 02:30N 29°58' W 093°51'0 0.0
2018-Jun-18 02:01N 29°58' W 093°51'0 0.0
2018-Jun-18 01:31N 29°58' W 093°51'0 0.0
2018-Jun-18 01:01N 29°58' W 093°51'0 0.0
2018-Jun-18 00:30N 29°58' W 093°51'0 0.0
2018-Jun-18 00:01N 29°58' W 093°51'0 0.0
2018-Jun-17 23:31N 29°58' W 093°51'0 0.0
2018-Jun-17 23:00N 29°58' W 093°51'0 0.0
2018-Jun-17 22:31N 29°58' W 093°51'0 0.0
2018-Jun-17 22:01N 29°58' W 093°51'0 0.0
2018-Jun-17 21:30N 29°58' W 093°51'0 0.0
2018-Jun-17 20:59N 29°58' W 093°51'0 0.0
2018-Jun-17 20:29N 29°58' W 093°51'0 0.0
2018-Jun-17 20:01N 29°58' W 093°51'0 0.0
2018-Jun-17 19:31N 29°58' W 093°51'0 0.0
2018-Jun-17 19:00N 29°58' W 093°51'0 0.0
2018-Jun-17 18:31N 29°58' W 093°51'0 0.0
2018-Jun-17 18:00N 29°58' W 093°51'0 0.0
2018-Jun-17 17:30N 29°58' W 093°51'0 0.0
2018-Jun-17 17:00N 29°58' W 093°51'0 0.0
2018-Jun-17 16:31N 29°58' W 093°51'0 0.0
2018-Jun-17 16:00N 29°58' W 093°51'0 0.0
2018-Jun-17 15:30N 29°58' W 093°51'0 0.0
2018-Jun-17 15:00N 29°58' W 093°51'0 0.0
2018-Jun-17 14:30N 29°58' W 093°51'0 0.0
2018-Jun-17 14:00N 29°58' W 093°51'0 0.0
2018-Jun-17 13:30N 29°58' W 093°51'0 0.0
2018-Jun-17 13:00N 29°58' W 093°51'0 0.0
2018-Jun-17 12:30N 29°58' W 093°51'0 0.0
2018-Jun-17 12:00N 29°58' W 093°51'0 0.0
2018-Jun-17 11:30N 29°58' W 093°51'0 0.0
2018-Jun-17 11:00N 29°58' W 093°51'0 0.0
2018-Jun-17 10:30N 29°58' W 093°51'0 0.0
2018-Jun-17 10:00N 29°58' W 093°51'0 0.0
2018-Jun-17 09:29N 29°58' W 093°51'0 0.0
2018-Jun-17 09:00N 29°58' W 093°51'0 0.0
2018-Jun-17 08:30N 29°58' W 093°51'0 0.0
2018-Jun-17 08:00N 29°58' W 093°51'0 0.0
2018-Jun-17 07:29N 29°58' W 093°51'0 0.0
2018-Jun-17 07:00N 29°58' W 093°51'0 0.0
2018-Jun-17 06:30N 29°58' W 093°51'0 0.3
2018-Jun-17 06:00N 29°58' W 093°51'0 0.2
2018-Jun-17 05:30N 29°58' W 093°51'0 0.1
2018-Jun-17 05:00N 29°58' W 093°51'0 0.0
2018-Jun-17 04:31N 29°58' W 093°51'0 0.0
2018-Jun-17 04:00N 29°58' W 093°51'0 0.0
2018-Jun-17 03:30N 29°58' W 093°51'0 0.0
2018-Jun-17 03:00N 29°58' W 093°51'0 0.0
2018-Jun-17 02:30N 29°58' W 093°51'0 0.0
2018-Jun-17 02:00N 29°58' W 093°51'0 0.0
2018-Jun-17 01:29N 29°58' W 093°51'0 0.0
2018-Jun-17 01:00N 29°58' W 093°51'0 0.0
2018-Jun-17 00:30N 29°58' W 093°51'0 0.0
2018-Jun-17 00:00N 29°58' W 093°51'0 0.0
2018-Jun-16 23:30N 29°58' W 093°51'0 0.0
2018-Jun-16 22:59N 29°58' W 093°51'0 0.0
2018-Jun-16 22:30N 29°58' W 093°51'0 0.0
2018-Jun-16 22:00N 29°58' W 093°51'0 0.0
2018-Jun-16 21:30N 29°58' W 093°51'1 2.2
2018-Jun-16 21:00N 29°58' W 093°52'0 0.0
2018-Jun-16 20:30N 29°58' W 093°52'0 0.0
2018-Jun-16 20:00N 29°58' W 093°52'0 0.0
2018-Jun-16 19:30N 29°58' W 093°52'0 0.0
2018-Jun-16 19:00N 29°58' W 093°52'0 0.0
2018-Jun-16 18:30N 29°58' W 093°52'0 0.0
2018-Jun-16 18:00N 29°58' W 093°52'0 0.0
2018-Jun-16 17:30N 29°58' W 093°52'0 0.0
2018-Jun-16 17:00N 29°58' W 093°52'0 0.0
2018-Jun-16 16:30N 29°58' W 093°52'0 0.2
2018-Jun-16 16:00N 29°58' W 093°51'0 0.8
2018-Jun-16 15:30N 29°57' W 093°52'0 0.0
2018-Jun-16 15:00N 29°57' W 093°52'0 0.0
2018-Jun-16 14:30N 29°57' W 093°52'0 0.0
2018-Jun-16 14:00N 29°57' W 093°52'0 0.0
2018-Jun-16 13:30N 29°57' W 093°52'0 0.0
2018-Jun-16 13:00N 29°57' W 093°52'0 0.0
2018-Jun-16 12:30N 29°57' W 093°52'0 0.0
2018-Jun-16 12:00N 29°57' W 093°52'0 0.0
2018-Jun-16 11:30N 29°57' W 093°52'0 0.0
2018-Jun-16 11:00N 29°57' W 093°52'0 0.0
2018-Jun-16 10:31N 29°57' W 093°52'0 0.0
2018-Jun-16 10:00N 29°57' W 093°52'0 0.0
2018-Jun-16 09:30N 29°57' W 093°52'0 0.0
2018-Jun-16 09:00N 29°57' W 093°52'0 0.0
2018-Jun-16 08:30N 29°57' W 093°52'0 0.0
2018-Jun-16 08:00N 29°57' W 093°52'0 0.0
2018-Jun-16 07:30N 29°57' W 093°52'0 0.0
2018-Jun-16 07:00N 29°57' W 093°52'0 0.0
2018-Jun-16 06:30N 29°57' W 093°52'0 0.0
2018-Jun-16 06:00N 29°57' W 093°52'0 0.2
2018-Jun-16 05:30N 29°57' W 093°52'0 1.0
2018-Jun-16 05:00N 29°57' W 093°52'3 5.2
2018-Jun-16 04:30N 29°59' W 093°50'4 7.5
2018-Jun-16 04:00N 30°00' W 093°46'4 7.3
2018-Jun-16 03:30N 30°03' W 093°43'3 6.6
2018-Jun-16 03:00N 30°04' W 093°40'4 6.8
2018-Jun-16 02:29N 30°04' W 093°35'3 6.7
2018-Jun-16 02:00N 30°04' W 093°32'3 6.7
2018-Jun-16 01:30N 30°04' W 093°28'3 6.7
2018-Jun-16 01:00N 30°04' W 093°24'2 4.2
2018-Jun-16 00:30N 30°04' W 093°21'2 4.8
2018-Jun-16 00:00N 30°05' W 093°20'2 3.6
2018-Jun-15 23:30N 30°05' W 093°18'0 0.6
2018-Jun-15 23:00N 30°05' W 093°17'0 1.0
2018-Jun-15 22:30N 30°05' W 093°17'0 0.0
2018-Jun-15 22:00N 30°05' W 093°17'0 0.0
2018-Jun-15 21:30N 30°05' W 093°17'0 0.0
2018-Jun-15 21:00N 30°05' W 093°17'0 0.0
2018-Jun-15 20:30N 30°05' W 093°17'0 0.0
2018-Jun-15 20:00N 30°05' W 093°17'0 0.0
2018-Jun-15 19:30N 30°05' W 093°17'0 0.0
2018-Jun-15 19:00N 30°05' W 093°17'0 0.0
2018-Jun-15 18:30N 30°05' W 093°17'0 0.0
2018-Jun-15 18:00N 30°05' W 093°17'0 0.0
2018-Jun-15 17:30N 30°05' W 093°17'0 0.0
2018-Jun-15 17:00N 30°05' W 093°17'0 0.0
2018-Jun-15 16:30N 30°05' W 093°17'0 0.0
2018-Jun-15 16:00N 30°05' W 093°17'0 0.0
2018-Jun-15 15:30N 30°05' W 093°17'0 0.1
2018-Jun-15 15:00N 30°05' W 093°17'0 0.0
2018-Jun-15 14:30N 30°05' W 093°17'0 0.0
2018-Jun-15 14:00N 30°05' W 093°17'0 0.0
2018-Jun-15 13:30N 30°05' W 093°17'0 0.0
2018-Jun-15 13:00N 30°05' W 093°17'0 0.0
2018-Jun-15 12:30N 30°05' W 093°17'0 0.0
2018-Jun-15 12:00N 30°05' W 093°17'0 0.0
2018-Jun-15 11:30N 30°05' W 093°17'0 0.0
2018-Jun-15 11:00N 30°05' W 093°17'0 0.1
2018-Jun-15 10:30N 30°05' W 093°17'0 0.1
2018-Jun-15 10:00N 30°05' W 093°17'0 0.1
2018-Jun-15 09:30N 30°05' W 093°17'0 0.0
2018-Jun-15 09:00N 30°05' W 093°17'0 0.0
2018-Jun-15 08:30N 30°05' W 093°17'0 0.0
2018-Jun-15 08:00N 30°05' W 093°17'0 0.0
2018-Jun-15 07:30N 30°05' W 093°17'0 0.2
2018-Jun-15 07:00N 30°05' W 093°17'0 0.2
2018-Jun-15 06:30N 30°05' W 093°17'1 1.8
2018-Jun-15 06:00N 30°04' W 093°16'0 0.9
2018-Jun-15 05:30N 30°04' W 093°16'1 2.0
2018-Jun-15 05:00N 30°03' W 093°16'1 1.9
2018-Jun-15 04:30N 30°02' W 093°15'0 0.0
2018-Jun-15 04:00N 30°02' W 093°15'0 0.0
2018-Jun-15 03:29N 30°02' W 093°15'0 0.0
2018-Jun-15 03:00N 30°02' W 093°15'0 0.0
2018-Jun-15 02:30N 30°02' W 093°15'0 0.0
2018-Jun-15 02:00N 30°02' W 093°15'0 0.0
2018-Jun-15 01:30N 30°02' W 093°15'0 0.0
2018-Jun-15 01:00N 30°02' W 093°15'0 0.0
2018-Jun-15 00:30N 30°02' W 093°15'0 0.0
2018-Jun-15 00:00N 30°02' W 093°15'0 0.0
2018-Jun-14 23:30N 30°02' W 093°15'0 0.0
2018-Jun-14 23:00N 30°02' W 093°15'0 0.0
2018-Jun-14 22:30N 30°02' W 093°15'0 0.0
2018-Jun-14 22:00N 30°02' W 093°15'0 0.0
2018-Jun-14 21:30N 30°02' W 093°15'0 0.0
2018-Jun-14 21:00N 30°02' W 093°15'0 0.0
2018-Jun-14 20:30N 30°02' W 093°15'0 0.0
2018-Jun-14 20:00N 30°02' W 093°15'0 0.0
2018-Jun-14 19:30N 30°02' W 093°15'0 0.0
2018-Jun-14 19:00N 30°02' W 093°15'0 0.0
2018-Jun-14 18:30N 30°02' W 093°15'0 0.0
2018-Jun-14 18:00N 30°02' W 093°15'0 0.0
2018-Jun-14 17:30N 30°02' W 093°15'0 0.0
2018-Jun-14 17:00N 30°02' W 093°15'0 0.0
2018-Jun-14 16:30N 30°02' W 093°15'0 0.0
2018-Jun-14 16:00N 30°02' W 093°15'0 0.0
2018-Jun-14 15:30N 30°02' W 093°15'0 0.0
2018-Jun-14 15:00N 30°02' W 093°15'0 0.1
2018-Jun-14 14:30N 30°02' W 093°15'0 0.1
2018-Jun-14 14:00N 30°02' W 093°15'0 0.0
2018-Jun-14 13:30N 30°02' W 093°15'0 0.1
2018-Jun-14 13:00N 30°02' W 093°15'0 0.0
2018-Jun-14 12:30N 30°02' W 093°15'0 0.0
2018-Jun-14 12:00N 30°02' W 093°15'0 0.0
2018-Jun-14 11:31N 30°02' W 093°15'0 0.0
2018-Jun-14 11:00N 30°02' W 093°15'0 0.0
2018-Jun-14 10:30N 30°02' W 093°15'0 0.0
2018-Jun-14 10:00N 30°02' W 093°15'0 0.0
2018-Jun-14 09:30N 30°02' W 093°15'0 0.2
2018-Jun-14 09:00N 30°02' W 093°15'2 4.7
2018-Jun-14 08:30N 29°60' W 093°13'3 5.9
2018-Jun-14 08:00N 29°58' W 093°11'0 0.9
2018-Jun-14 07:30N 29°57' W 093°11'0 0.0
2018-Jun-14 07:00N 29°57' W 093°11'0 0.0
2018-Jun-14 06:30N 29°57' W 093°11'0 0.0
2018-Jun-14 06:00N 29°57' W 093°11'0 0.0
2018-Jun-14 05:30N 29°57' W 093°11'0 0.0
2018-Jun-14 05:00N 29°57' W 093°11'0 0.0
2018-Jun-14 04:30N 29°57' W 093°11'0 0.0
2018-Jun-14 04:00N 29°57' W 093°11'0 0.1
2018-Jun-14 03:30N 29°57' W 093°11'0 0.0
2018-Jun-14 03:00N 29°57' W 093°11'0 0.0
2018-Jun-14 02:30N 29°57' W 093°11'0 0.0
2018-Jun-14 02:00N 29°57' W 093°11'0 0.0
2018-Jun-14 01:30N 29°57' W 093°11'0 0.0
2018-Jun-14 01:00N 29°57' W 093°11'0 0.6
2018-Jun-14 00:30N 29°57' W 093°10'2 4.0
2018-Jun-13 23:59N 29°56' W 093°08'1 1.6
2018-Jun-13 23:30N 29°56' W 093°08'0 0.0
2018-Jun-13 23:00N 29°56' W 093°08'0 0.0
2018-Jun-13 22:30N 29°56' W 093°08'0 0.0
2018-Jun-13 21:54N 29°56' W 093°08'0 0.0
2018-Jun-13 21:30N 29°56' W 093°08'0 0.0
2018-Jun-13 21:00N 29°56' W 093°08'0 0.0
2018-Jun-13 20:26N 29°56' W 093°08'37 5.6
2018-Jun-13 13:45N 29°53' W 092°25'2 6.0
2018-Jun-13 13:25N 29°52' W 092°23'2 5.6
2018-Jun-13 13:00N 29°51' W 092°21'2 4.8
2018-Jun-13 12:30N 29°50' W 092°18'3 6.0
2018-Jun-13 12:00N 29°48' W 092°15'3 5.5
2018-Jun-13 11:30N 29°47' W 092°12'0 0.4
2018-Jun-13 11:00N 29°47' W 092°12'1 2.2
2018-Jun-13 10:30N 29°47' W 092°11'0 0.2
2018-Jun-13 10:00N 29°47' W 092°11'0 0.0
2018-Jun-13 09:30N 29°47' W 092°11'2 4.0
2018-Jun-13 09:00N 29°47' W 092°09'0 0.9
2018-Jun-13 08:30N 29°47' W 092°08'3 5.9
2018-Jun-13 08:00N 29°48' W 092°05'3 5.8
2018-Jun-13 07:30N 29°49' W 092°02'3 5.7
2018-Jun-13 07:00N 29°50' W 091°59'2 3.9
2018-Jun-13 06:30N 29°51' W 091°56'6 5.6
2018-Jun-13 05:27N 29°50' W 091°50'  
Track history (hours):
 
Tides and Currents Weather Stations Pressure Air Temp Water Temp Dewpoint Dewpoint Depression Visibility Wind Speed Wind Dir Waves Ship Positions

Resurrection

Owner: Marquette Transportation Company Gulf-Inland, LLC, Jefferson, LA. More information available from US FCC via Universal Licensing System and Coast Guard Vessel Documentation Center.

Last reported at 2018-Jun-21 05:34 UTC. Time now 2018-Jun-21 17:39 UTC.
Position N 29°46' W 095°06'.

Length 224 m; draft 2.8 m.

Type: . MMSI: 367367620.

Date/timePositionNaut miles runAvg speedWind from/ knotsBaromVisibWave heightAir tempDewpointWater temp
2018-Jun-21 05:34N 29°46' W 095°06'0 6.2
2018-Jun-21 05:29N 29°46' W 095°05'4 1.3
2018-Jun-21 02:40N 29°44' W 095°02'2 5.4
2018-Jun-21 02:22N 29°42' W 095°01'2 5.7
2018-Jun-21 01:59N 29°41' W 094°59'3 6.6
2018-Jun-21 01:30N 29°38' W 094°58'3 6.9
2018-Jun-21 01:00N 29°35' W 094°56'6 6.5
2018-Jun-21 00:03N 29°30' W 094°52'0 6.4
2018-Jun-21 00:00N 29°30' W 094°52'3 6.4
2018-Jun-20 23:29N 29°27' W 094°50'3 6.5
2018-Jun-20 23:01N 29°24' W 094°49'2 4.3
2018-Jun-20 22:29N 29°23' W 094°47'18 5.2
2018-Jun-20 19:01N 29°32' W 094°29'2 5.5
2018-Jun-20 18:35N 29°34' W 094°27'1 5.5
2018-Jun-20 18:29N 29°34' W 094°26'2 3.9
2018-Jun-20 18:00N 29°35' W 094°25'2 5.0
2018-Jun-20 17:30N 29°36' W 094°22'3 6.0
2018-Jun-20 17:00N 29°38' W 094°19'3 5.5
2018-Jun-20 16:30N 29°39' W 094°16'3 6.2
2018-Jun-20 16:00N 29°40' W 094°13'3 6.2
2018-Jun-20 15:31N 29°41' W 094°10'3 5.9
2018-Jun-20 15:00N 29°43' W 094°07'3 6.1
2018-Jun-20 14:30N 29°45' W 094°04'3 6.1
2018-Jun-20 14:01N 29°47' W 094°02'3 5.8
2018-Jun-20 13:30N 29°49' W 093°59'2 4.8
2018-Jun-20 13:00N 29°50' W 093°57'4 7.3
2018-Jun-20 12:30N 29°53' W 093°55'4 7.2
2018-Jun-20 12:00N 29°56' W 093°52'3 5.2
2018-Jun-20 11:31N 29°59' W 093°52'4 7.0
2018-Jun-20 11:00N 29°60' W 093°56'3 5.1
2018-Jun-20 10:31N 30°01' W 093°59'3 6.0
2018-Jun-20 10:01N 30°02' W 094°02'2 4.7
2018-Jun-20 09:31N 30°04' W 094°03'0 0.1
2018-Jun-20 08:59N 30°04' W 094°03'1 1.4
2018-Jun-20 08:30N 30°04' W 094°04'0 0.1
2018-Jun-20 08:01N 30°04' W 094°04'0 0.0
2018-Jun-20 07:31N 30°04' W 094°04'0 0.0
2018-Jun-20 07:01N 30°04' W 094°04'0 0.0
2018-Jun-20 06:30N 30°04' W 094°04'0 0.0
2018-Jun-20 06:01N 30°04' W 094°04'0 0.0
2018-Jun-20 05:30N 30°04' W 094°04'0 0.0
2018-Jun-20 05:01N 30°04' W 094°04'0 0.0
2018-Jun-20 04:30N 30°04' W 094°04'0 0.0
2018-Jun-20 04:00N 30°04' W 094°04'0 0.0
2018-Jun-20 03:30N 30°04' W 094°04'0 0.0
2018-Jun-20 03:00N 30°04' W 094°04'0 0.0
2018-Jun-20 02:30N 30°04' W 094°04'0 0.0
2018-Jun-20 02:00N 30°04' W 094°04'0 0.0
2018-Jun-20 01:31N 30°04' W 094°04'0 0.0
2018-Jun-20 01:00N 30°04' W 094°04'0 0.0
2018-Jun-20 00:30N 30°04' W 094°04'0 0.0
2018-Jun-20 00:01N 30°04' W 094°04'0 0.0
2018-Jun-19 23:30N 30°04' W 094°04'0 0.0
2018-Jun-19 23:00N 30°04' W 094°04'0 0.0
2018-Jun-19 22:31N 30°04' W 094°04'0 0.0
2018-Jun-19 22:01N 30°04' W 094°04'0 0.0
2018-Jun-19 21:31N 30°04' W 094°04'0 0.0
2018-Jun-19 21:01N 30°04' W 094°04'0 0.0
2018-Jun-19 20:30N 30°04' W 094°04'0 0.0
2018-Jun-19 20:00N 30°04' W 094°04'0 0.0
2018-Jun-19 19:30N 30°04' W 094°04'0 0.0
2018-Jun-19 19:00N 30°04' W 094°04'0 0.0
2018-Jun-19 18:30N 30°04' W 094°04'0 0.0
2018-Jun-19 18:01N 30°04' W 094°04'0 0.0
2018-Jun-19 17:31N 30°04' W 094°04'0 0.0
2018-Jun-19 17:00N 30°04' W 094°04'1 1.4
2018-Jun-19 16:31N 30°04' W 094°03'0 0.1
2018-Jun-19 16:00N 30°04' W 094°03'1 1.3
2018-Jun-19 15:31N 30°04' W 094°04'0 0.0
2018-Jun-19 15:01N 30°04' W 094°04'0 0.0
2018-Jun-19 14:30N 30°04' W 094°04'0 0.0
2018-Jun-19 14:00N 30°04' W 094°04'0 0.0
2018-Jun-19 13:31N 30°04' W 094°04'0 0.0
2018-Jun-19 13:00N 30°04' W 094°04'0 0.0
2018-Jun-19 12:30N 30°04' W 094°04'0 0.0
2018-Jun-19 11:59N 30°04' W 094°04'0 0.0
2018-Jun-19 11:27N 30°04' W 094°04'0 0.0
2018-Jun-19 11:00N 30°04' W 094°04'0 0.0
2018-Jun-19 10:31N 30°04' W 094°04'0 0.0
2018-Jun-19 10:01N 30°04' W 094°04'0 0.0
2018-Jun-19 09:30N 30°04' W 094°04'0 0.0
2018-Jun-19 09:00N 30°04' W 094°04'0 0.0
2018-Jun-19 08:30N 30°04' W 094°04'0 0.0
2018-Jun-19 08:00N 30°04' W 094°04'0 0.0
2018-Jun-19 07:30N 30°04' W 094°04'0 0.0
2018-Jun-19 07:01N 30°04' W 094°04'0 0.0
2018-Jun-19 06:31N 30°04' W 094°04'1 1.3
2018-Jun-19 06:01N 30°04' W 094°03'1 2.0
2018-Jun-19 05:30N 30°04' W 094°02'3 5.4
2018-Jun-19 05:00N 30°01' W 094°01'3 5.9
2018-Jun-19 04:30N 30°01' W 093°57'3 6.4
2018-Jun-19 04:00N 29°59' W 093°54'3 5.7
2018-Jun-19 03:30N 29°57' W 093°52'0 0.3
2018-Jun-19 03:00N 29°57' W 093°52'0 0.3
2018-Jun-19 02:31N 29°58' W 093°52'0 0.6
2018-Jun-19 02:01N 29°57' W 093°52'0 0.7
2018-Jun-19 01:30N 29°58' W 093°52'0 0.7
2018-Jun-19 01:00N 29°58' W 093°52'3 6.4
2018-Jun-19 00:30N 29°59' W 093°55'3 6.8
2018-Jun-19 00:00N 30°01' W 093°58'3 6.6
2018-Jun-18 23:31N 30°02' W 094°02'3 6.1
2018-Jun-18 23:01N 30°04' W 094°03'0 0.5
2018-Jun-18 22:31N 30°04' W 094°04'0 0.0
2018-Jun-18 22:01N 30°04' W 094°04'3 5.1
2018-Jun-18 21:31N 30°02' W 094°02'3 6.9
2018-Jun-18 21:00N 30°01' W 093°58'4 7.4
2018-Jun-18 20:31N 29°59' W 093°54'3 6.3
2018-Jun-18 20:00N 29°57' W 093°52'1 1.1
2018-Jun-18 19:31N 29°58' W 093°52'0 0.2
2018-Jun-18 19:01N 29°58' W 093°52'0 0.2
2018-Jun-18 18:29N 29°58' W 093°52'0 0.0
2018-Jun-18 18:01N 29°58' W 093°52'1 2.1
2018-Jun-18 17:30N 29°58' W 093°51'0 0.3
2018-Jun-18 17:00N 29°58' W 093°51'0 0.0
2018-Jun-18 16:30N 29°58' W 093°51'0 0.0
2018-Jun-18 16:00N 29°58' W 093°51'0 0.0
2018-Jun-18 15:30N 29°58' W 093°51'0 0.0
2018-Jun-18 15:00N 29°58' W 093°51'0 0.0
2018-Jun-18 14:30N 29°58' W 093°51'0 0.0
2018-Jun-18 14:01N 29°58' W 093°51'0 0.0
2018-Jun-18 13:31N 29°58' W 093°51'0 0.0
2018-Jun-18 13:01N 29°58' W 093°51'0 0.0
2018-Jun-18 12:31N 29°58' W 093°51'0 0.0
2018-Jun-18 12:01N 29°58' W 093°51'0 0.0
2018-Jun-18 11:30N 29°58' W 093°51'0 0.0
2018-Jun-18 11:01N 29°58' W 093°51'0 0.0
2018-Jun-18 10:30N 29°58' W 093°51'0 0.0
2018-Jun-18 10:01N 29°58' W 093°51'0 0.0
2018-Jun-18 09:30N 29°58' W 093°51'0 0.0
2018-Jun-18 09:01N 29°58' W 093°51'0 0.0
2018-Jun-18 08:30N 29°58' W 093°51'0 0.0
2018-Jun-18 08:00N 29°58' W 093°51'0 0.0
2018-Jun-18 07:31N 29°58' W 093°51'0 0.0
2018-Jun-18 07:00N 29°58' W 093°51'0 0.0
2018-Jun-18 06:30N 29°58' W 093°51'0 0.0
2018-Jun-18 06:01N 29°58' W 093°51'0 0.0
2018-Jun-18 05:30N 29°58' W 093°51'0 0.0
2018-Jun-18 05:01N 29°58' W 093°51'0 0.0
2018-Jun-18 04:30N 29°58' W 093°51'0 0.0
2018-Jun-18 04:00N 29°58' W 093°51'0 0.0
2018-Jun-18 03:31N 29°58' W 093°51'0 0.0
2018-Jun-18 03:00N 29°58' W 093°51'0 0.0
2018-Jun-18 02:30N 29°58' W 093°51'0 0.0
2018-Jun-18 02:01N 29°58' W 093°51'0 0.0
2018-Jun-18 01:31N 29°58' W 093°51'0 0.0
2018-Jun-18 01:01N 29°58' W 093°51'0 0.0
2018-Jun-18 00:30N 29°58' W 093°51'0 0.0
2018-Jun-18 00:01N 29°58' W 093°51'0 0.0
2018-Jun-17 23:31N 29°58' W 093°51'0 0.0
2018-Jun-17 23:00N 29°58' W 093°51'0 0.0
2018-Jun-17 22:31N 29°58' W 093°51'0 0.0
2018-Jun-17 22:01N 29°58' W 093°51'0 0.0
2018-Jun-17 21:30N 29°58' W 093°51'0 0.0
2018-Jun-17 20:59N 29°58' W 093°51'0 0.0
2018-Jun-17 20:29N 29°58' W 093°51'0 0.0
2018-Jun-17 20:01N 29°58' W 093°51'0 0.0
2018-Jun-17 19:31N 29°58' W 093°51'0 0.0
2018-Jun-17 19:00N 29°58' W 093°51'0 0.0
2018-Jun-17 18:31N 29°58' W 093°51'0 0.0
2018-Jun-17 18:00N 29°58' W 093°51'0 0.0
2018-Jun-17 17:30N 29°58' W 093°51'0 0.0
2018-Jun-17 17:00N 29°58' W 093°51'0 0.0
2018-Jun-17 16:31N 29°58' W 093°51'0 0.0
2018-Jun-17 16:00N 29°58' W 093°51'0 0.0
2018-Jun-17 15:30N 29°58' W 093°51'0 0.0
2018-Jun-17 15:00N 29°58' W 093°51'0 0.0
2018-Jun-17 14:30N 29°58' W 093°51'0 0.0
2018-Jun-17 14:00N 29°58' W 093°51'0 0.0
2018-Jun-17 13:30N 29°58' W 093°51'0 0.0
2018-Jun-17 13:00N 29°58' W 093°51'0 0.0
2018-Jun-17 12:30N 29°58' W 093°51'0 0.0
2018-Jun-17 12:00N 29°58' W 093°51'0 0.0
2018-Jun-17 11:30N 29°58' W 093°51'0 0.0
2018-Jun-17 11:00N 29°58' W 093°51'0 0.0
2018-Jun-17 10:30N 29°58' W 093°51'0 0.0
2018-Jun-17 10:00N 29°58' W 093°51'0 0.0
2018-Jun-17 09:29N 29°58' W 093°51'0 0.0
2018-Jun-17 09:00N 29°58' W 093°51'0 0.0
2018-Jun-17 08:30N 29°58' W 093°51'0 0.0
2018-Jun-17 08:00N 29°58' W 093°51'0 0.0
2018-Jun-17 07:29N 29°58' W 093°51'0 0.0
2018-Jun-17 07:00N 29°58' W 093°51'0 0.0
2018-Jun-17 06:30N 29°58' W 093°51'0 0.3
2018-Jun-17 06:00N 29°58' W 093°51'0 0.2
2018-Jun-17 05:30N 29°58' W 093°51'0 0.1
2018-Jun-17 05:00N 29°58' W 093°51'0 0.0
2018-Jun-17 04:31N 29°58' W 093°51'0 0.0
2018-Jun-17 04:00N 29°58' W 093°51'0 0.0
2018-Jun-17 03:30N 29°58' W 093°51'0 0.0
2018-Jun-17 03:00N 29°58' W 093°51'0 0.0
2018-Jun-17 02:30N 29°58' W 093°51'0 0.0
2018-Jun-17 02:00N 29°58' W 093°51'0 0.0
2018-Jun-17 01:29N 29°58' W 093°51'0 0.0
2018-Jun-17 01:00N 29°58' W 093°51'0 0.0
2018-Jun-17 00:30N 29°58' W 093°51'0 0.0
2018-Jun-17 00:00N 29°58' W 093°51'0 0.0
2018-Jun-16 23:30N 29°58' W 093°51'0 0.0
2018-Jun-16 22:59N 29°58' W 093°51'0 0.0
2018-Jun-16 22:30N 29°58' W 093°51'0 0.0
2018-Jun-16 22:00N 29°58' W 093°51'0 0.0
2018-Jun-16 21:30N 29°58' W 093°51'1 2.2
2018-Jun-16 21:00N 29°58' W 093°52'0 0.0
2018-Jun-16 20:30N 29°58' W 093°52'0 0.0
2018-Jun-16 20:00N 29°58' W 093°52'0 0.0
2018-Jun-16 19:30N 29°58' W 093°52'0 0.0
2018-Jun-16 19:00N 29°58' W 093°52'0 0.0
2018-Jun-16 18:30N 29°58' W 093°52'0 0.0
2018-Jun-16 18:00N 29°58' W 093°52'0 0.0
2018-Jun-16 17:30N 29°58' W 093°52'0 0.0
2018-Jun-16 17:00N 29°58' W 093°52'0 0.0
2018-Jun-16 16:30N 29°58' W 093°52'0 0.2
2018-Jun-16 16:00N 29°58' W 093°51'0 0.8
2018-Jun-16 15:30N 29°57' W 093°52'0 0.0
2018-Jun-16 15:00N 29°57' W 093°52'0 0.0
2018-Jun-16 14:30N 29°57' W 093°52'0 0.0
2018-Jun-16 14:00N 29°57' W 093°52'0 0.0
2018-Jun-16 13:30N 29°57' W 093°52'0 0.0
2018-Jun-16 13:00N 29°57' W 093°52'0 0.0
2018-Jun-16 12:30N 29°57' W 093°52'0 0.0
2018-Jun-16 12:00N 29°57' W 093°52'0 0.0
2018-Jun-16 11:30N 29°57' W 093°52'0 0.0
2018-Jun-16 11:00N 29°57' W 093°52'0 0.0
2018-Jun-16 10:31N 29°57' W 093°52'0 0.0
2018-Jun-16 10:00N 29°57' W 093°52'0 0.0
2018-Jun-16 09:30N 29°57' W 093°52'0 0.0
2018-Jun-16 09:00N 29°57' W 093°52'0 0.0
2018-Jun-16 08:30N 29°57' W 093°52'0 0.0
2018-Jun-16 08:00N 29°57' W 093°52'0 0.0
2018-Jun-16 07:30N 29°57' W 093°52'0 0.0
2018-Jun-16 07:00N 29°57' W 093°52'0 0.0
2018-Jun-16 06:30N 29°57' W 093°52'0 0.0
2018-Jun-16 06:00N 29°57' W 093°52'0 0.2
2018-Jun-16 05:30N 29°57' W 093°52'0 1.0
2018-Jun-16 05:00N 29°57' W 093°52'3 5.2
2018-Jun-16 04:30N 29°59' W 093°50'4 7.5
2018-Jun-16 04:00N 30°00' W 093°46'4 7.3
2018-Jun-16 03:30N 30°03' W 093°43'3 6.6
2018-Jun-16 03:00N 30°04' W 093°40'4 6.8
2018-Jun-16 02:29N 30°04' W 093°35'3 6.7
2018-Jun-16 02:00N 30°04' W 093°32'3 6.7
2018-Jun-16 01:30N 30°04' W 093°28'3 6.7
2018-Jun-16 01:00N 30°04' W 093°24'2 4.2
2018-Jun-16 00:30N 30°04' W 093°21'2 4.8
2018-Jun-16 00:00N 30°05' W 093°20'2 3.6
2018-Jun-15 23:30N 30°05' W 093°18'0 0.6
2018-Jun-15 23:00N 30°05' W 093°17'0 1.0
2018-Jun-15 22:30N 30°05' W 093°17'0 0.0
2018-Jun-15 22:00N 30°05' W 093°17'0 0.0
2018-Jun-15 21:30N 30°05' W 093°17'0 0.0
2018-Jun-15 21:00N 30°05' W 093°17'0 0.0
2018-Jun-15 20:30N 30°05' W 093°17'0 0.0
2018-Jun-15 20:00N 30°05' W 093°17'0 0.0
2018-Jun-15 19:30N 30°05' W 093°17'0 0.0
2018-Jun-15 19:00N 30°05' W 093°17'0 0.0
2018-Jun-15 18:30N 30°05' W 093°17'0 0.0
2018-Jun-15 18:00N 30°05' W 093°17'0 0.0
2018-Jun-15 17:30N 30°05' W 093°17'0 0.0
2018-Jun-15 17:00N 30°05' W 093°17'0 0.0
2018-Jun-15 16:30N 30°05' W 093°17'0 0.0
2018-Jun-15 16:00N 30°05' W 093°17'0 0.0
2018-Jun-15 15:30N 30°05' W 093°17'0 0.1
2018-Jun-15 15:00N 30°05' W 093°17'0 0.0
2018-Jun-15 14:30N 30°05' W 093°17'0 0.0
2018-Jun-15 14:00N 30°05' W 093°17'0 0.0
2018-Jun-15 13:30N 30°05' W 093°17'0 0.0
2018-Jun-15 13:00N 30°05' W 093°17'0 0.0
2018-Jun-15 12:30N 30°05' W 093°17'0 0.0
2018-Jun-15 12:00N 30°05' W 093°17'0 0.0
2018-Jun-15 11:30N 30°05' W 093°17'0 0.0
2018-Jun-15 11:00N 30°05' W 093°17'0 0.1
2018-Jun-15 10:30N 30°05' W 093°17'0 0.1
2018-Jun-15 10:00N 30°05' W 093°17'0 0.1
2018-Jun-15 09:30N 30°05' W 093°17'0 0.0
2018-Jun-15 09:00N 30°05' W 093°17'0 0.0
2018-Jun-15 08:30N 30°05' W 093°17'0 0.0
2018-Jun-15 08:00N 30°05' W 093°17'0 0.0
2018-Jun-15 07:30N 30°05' W 093°17'0 0.2
2018-Jun-15 07:00N 30°05' W 093°17'0 0.2
2018-Jun-15 06:30N 30°05' W 093°17'1 1.8
2018-Jun-15 06:00N 30°04' W 093°16'0 0.9
2018-Jun-15 05:30N 30°04' W 093°16'1 2.0
2018-Jun-15 05:00N 30°03' W 093°16'1 1.9
2018-Jun-15 04:30N 30°02' W 093°15'0 0.0
2018-Jun-15 04:00N 30°02' W 093°15'0 0.0
2018-Jun-15 03:29N 30°02' W 093°15'0 0.0
2018-Jun-15 03:00N 30°02' W 093°15'0 0.0
2018-Jun-15 02:30N 30°02' W 093°15'0 0.0
2018-Jun-15 02:00N 30°02' W 093°15'0 0.0
2018-Jun-15 01:30N 30°02' W 093°15'0 0.0
2018-Jun-15 01:00N 30°02' W 093°15'0 0.0
2018-Jun-15 00:30N 30°02' W 093°15'0 0.0
2018-Jun-15 00:00N 30°02' W 093°15'0 0.0
2018-Jun-14 23:30N 30°02' W 093°15'0 0.0
2018-Jun-14 23:00N 30°02' W 093°15'0 0.0
2018-Jun-14 22:30N 30°02' W 093°15'0 0.0
2018-Jun-14 22:00N 30°02' W 093°15'0 0.0
2018-Jun-14 21:30N 30°02' W 093°15'0 0.0
2018-Jun-14 21:00N 30°02' W 093°15'0 0.0
2018-Jun-14 20:30N 30°02' W 093°15'0 0.0
2018-Jun-14 20:00N 30°02' W 093°15'0 0.0
2018-Jun-14 19:30N 30°02' W 093°15'0 0.0
2018-Jun-14 19:00N 30°02' W 093°15'0 0.0
2018-Jun-14 18:30N 30°02' W 093°15'0 0.0
2018-Jun-14 18:00N 30°02' W 093°15'0 0.0
2018-Jun-14 17:30N 30°02' W 093°15'0 0.0
2018-Jun-14 17:00N 30°02' W 093°15'0 0.0
2018-Jun-14 16:30N 30°02' W 093°15'0 0.0
2018-Jun-14 16:00N 30°02' W 093°15'0 0.0
2018-Jun-14 15:30N 30°02' W 093°15'0 0.0
2018-Jun-14 15:00N 30°02' W 093°15'0 0.1
2018-Jun-14 14:30N 30°02' W 093°15'0 0.1
2018-Jun-14 14:00N 30°02' W 093°15'0 0.0
2018-Jun-14 13:30N 30°02' W 093°15'0 0.1
2018-Jun-14 13:00N 30°02' W 093°15'0 0.0
2018-Jun-14 12:30N 30°02' W 093°15'0 0.0
2018-Jun-14 12:00N 30°02' W 093°15'0 0.0
2018-Jun-14 11:31N 30°02' W 093°15'0 0.0
2018-Jun-14 11:00N 30°02' W 093°15'0 0.0
2018-Jun-14 10:30N 30°02' W 093°15'0 0.0
2018-Jun-14 10:00N 30°02' W 093°15'0 0.0
2018-Jun-14 09:30N 30°02' W 093°15'0 0.2
2018-Jun-14 09:00N 30°02' W 093°15'2 4.7
2018-Jun-14 08:30N 29°60' W 093°13'3 5.9
2018-Jun-14 08:00N 29°58' W 093°11'0 0.9
2018-Jun-14 07:30N 29°57' W 093°11'0 0.0
2018-Jun-14 07:00N 29°57' W 093°11'0 0.0
2018-Jun-14 06:30N 29°57' W 093°11'0 0.0
2018-Jun-14 06:00N 29°57' W 093°11'0 0.0
2018-Jun-14 05:30N 29°57' W 093°11'0 0.0
2018-Jun-14 05:00N 29°57' W 093°11'0 0.0
2018-Jun-14 04:30N 29°57' W 093°11'0 0.0
2018-Jun-14 04:00N 29°57' W 093°11'0 0.1
2018-Jun-14 03:30N 29°57' W 093°11'0 0.0
2018-Jun-14 03:00N 29°57' W 093°11'0 0.0
2018-Jun-14 02:30N 29°57' W 093°11'0 0.0
2018-Jun-14 02:00N 29°57' W 093°11'0 0.0
2018-Jun-14 01:30N 29°57' W 093°11'0 0.0
2018-Jun-14 01:00N 29°57' W 093°11'0 0.6
2018-Jun-14 00:30N 29°57' W 093°10'2 4.0
2018-Jun-13 23:59N 29°56' W 093°08'1 1.6
2018-Jun-13 23:30N 29°56' W 093°08'0 0.0
2018-Jun-13 23:00N 29°56' W 093°08'0 0.0
2018-Jun-13 22:30N 29°56' W 093°08'0 0.0
2018-Jun-13 21:54N 29°56' W 093°08'0 0.0
2018-Jun-13 21:30N 29°56' W 093°08'0 0.0
2018-Jun-13 21:00N 29°56' W 093°08'0 0.0
2018-Jun-13 20:26N 29°56' W 093°08'37 5.6
2018-Jun-13 13:45N 29°53' W 092°25'2 6.0
2018-Jun-13 13:25N 29°52' W 092°23'2 5.6
2018-Jun-13 13:00N 29°51' W 092°21'2 4.8
2018-Jun-13 12:30N 29°50' W 092°18'3 6.0
2018-Jun-13 12:00N 29°48' W 092°15'3 5.5
2018-Jun-13 11:30N 29°47' W 092°12'0 0.4
2018-Jun-13 11:00N 29°47' W 092°12'1 2.2
2018-Jun-13 10:30N 29°47' W 092°11'0 0.2
2018-Jun-13 10:00N 29°47' W 092°11'0 0.0
2018-Jun-13 09:30N 29°47' W 092°11'2 4.0
2018-Jun-13 09:00N 29°47' W 092°09'0 0.9
2018-Jun-13 08:30N 29°47' W 092°08'3 5.9
2018-Jun-13 08:00N 29°48' W 092°05'3 5.8
2018-Jun-13 07:30N 29°49' W 092°02'3 5.7
2018-Jun-13 07:00N 29°50' W 091°59'2 3.9
2018-Jun-13 06:30N 29°51' W 091°56'6 5.6
2018-Jun-13 05:27N 29°50' W 091°50'  

Dump ship's entire track history